createdAt,value
2022-10-23T00:02:42.197Z,20.04
2022-10-23T00:05:28.946Z,20.03
2022-10-23T00:08:14.544Z,20.00
2022-10-23T00:10:59.911Z,20.00
2022-10-23T00:13:46.360Z,19.98
2022-10-23T00:16:32.596Z,19.97
2022-10-23T00:19:18.336Z,19.96
2022-10-23T00:22:03.838Z,19.94
2022-10-23T00:24:49.144Z,19.94
2022-10-23T00:27:34.781Z,19.92
2022-10-23T00:30:20.578Z,19.90
2022-10-23T00:33:06.242Z,19.88
2022-10-23T00:35:51.843Z,19.88
2022-10-23T00:38:37.740Z,19.85
2022-10-23T00:41:26.122Z,19.85
2022-10-23T00:44:31.367Z,19.82
2022-10-23T00:47:17.576Z,19.82
2022-10-23T00:50:03.048Z,19.79
2022-10-23T00:52:51.278Z,19.80
2022-10-23T00:55:38.412Z,19.78
2022-10-23T00:58:24.600Z,19.77
2022-10-23T01:01:20.670Z,19.76
2022-10-23T01:04:07.503Z,19.76
2022-10-23T01:07:17.583Z,19.72
2022-10-23T01:10:15.548Z,19.73
2022-10-23T01:13:34.244Z,19.70
2022-10-23T01:16:46.261Z,19.70
2022-10-23T01:20:07.094Z,19.69
2022-10-23T01:23:17.050Z,19.69
2022-10-23T01:26:11.628Z,19.66
2022-10-23T01:29:15.173Z,19.65
2022-10-23T01:32:15.175Z,19.65
2022-10-23T01:35:13.254Z,19.65
2022-10-23T01:38:12.542Z,19.64
2022-10-23T01:41:03.154Z,19.63
2022-10-23T01:44:01.740Z,19.62
2022-10-23T01:46:53.298Z,19.62
2022-10-23T01:49:40.945Z,19.61
2022-10-23T01:52:26.688Z,19.60
2022-10-23T01:55:14.479Z,19.60
2022-10-23T01:58:02.857Z,19.58
2022-10-23T02:00:59.044Z,19.59
2022-10-23T02:03:45.481Z,19.57
2022-10-23T02:06:30.605Z,19.56
2022-10-23T02:09:16.138Z,19.56
2022-10-23T02:12:19.273Z,19.56
2022-10-23T02:15:28.843Z,19.53
2022-10-23T02:18:41.811Z,19.51
2022-10-23T02:21:53.277Z,19.50
2022-10-23T02:25:01.593Z,19.50
2022-10-23T02:27:55.215Z,19.49
2022-10-23T02:30:49.174Z,19.48
2022-10-23T02:33:36.053Z,19.47
2022-10-23T02:36:21.821Z,19.48
2022-10-23T02:39:07.685Z,19.47
2022-10-23T02:42:20.468Z,19.46
2022-10-23T02:45:11.429Z,19.46
2022-10-23T02:48:05.968Z,19.44
2022-10-23T02:51:21.163Z,19.44
2022-10-23T02:54:13.148Z,19.44
2022-10-23T02:57:09.525Z,19.44
2022-10-23T03:00:08.166Z,19.44
2022-10-23T03:03:02.950Z,19.43
2022-10-23T03:05:50.958Z,19.44
2022-10-23T03:08:45.070Z,19.44
2022-10-23T03:11:30.917Z,19.44
2022-10-23T03:14:16.118Z,19.45
2022-10-23T03:17:01.274Z,19.45
2022-10-23T03:19:46.447Z,19.46
2022-10-23T03:22:32.902Z,19.47
2022-10-23T03:25:19.200Z,19.46
2022-10-23T03:28:04.576Z,19.47
2022-10-23T03:30:53.180Z,19.46
2022-10-23T03:33:38.676Z,19.46
2022-10-23T03:36:27.408Z,19.46
2022-10-23T03:39:12.801Z,19.47
2022-10-23T03:41:58.194Z,19.46
2022-10-23T03:44:43.521Z,19.47
2022-10-23T03:47:30.479Z,19.48
2022-10-23T03:50:16.564Z,19.48
2022-10-23T03:53:01.892Z,19.48
2022-10-23T03:55:47.190Z,19.48
2022-10-23T03:58:35.524Z,19.48
2022-10-23T04:01:20.817Z,19.48
2022-10-23T04:04:06.171Z,19.48
2022-10-23T04:06:53.382Z,19.48
2022-10-23T04:09:39.684Z,19.49
2022-10-23T04:12:25.139Z,19.48
2022-10-23T04:15:10.945Z,19.49
2022-10-23T04:17:56.236Z,19.49
2022-10-23T04:20:41.492Z,19.50
2022-10-23T04:23:27.056Z,19.50
2022-10-23T04:26:13.360Z,19.49
2022-10-23T04:28:58.690Z,19.49
2022-10-23T04:31:47.008Z,19.48
2022-10-23T04:34:32.389Z,19.49
2022-10-23T04:37:17.659Z,19.48
2022-10-23T04:40:03.877Z,19.49
2022-10-23T04:42:53.705Z,19.49
2022-10-23T04:45:39.994Z,19.49
2022-10-23T04:48:28.345Z,19.50
2022-10-23T04:51:33.344Z,19.49
2022-10-23T04:54:39.058Z,19.49
2022-10-23T04:57:41.924Z,19.49
2022-10-23T05:00:28.729Z,19.49
2022-10-23T05:03:16.001Z,19.49
2022-10-23T05:06:02.444Z,19.50
2022-10-23T05:09:04.117Z,19.48
2022-10-23T05:12:08.588Z,19.49
2022-10-23T05:14:54.593Z,19.49
2022-10-23T05:17:44.082Z,19.48
2022-10-23T05:20:34.185Z,19.49
2022-10-23T05:23:25.129Z,19.51
2022-10-23T05:26:18.972Z,19.51
2022-10-23T05:29:06.734Z,19.54
2022-10-23T05:31:55.902Z,19.56
2022-10-23T05:34:42.662Z,19.58
2022-10-23T05:37:29.454Z,19.61
2022-10-23T05:40:26.801Z,19.64
2022-10-23T05:43:18.769Z,19.66
2022-10-23T05:46:10.832Z,19.65
2022-10-23T05:49:20.225Z,19.72
2022-10-23T05:52:14.756Z,19.75
2022-10-23T05:55:19.141Z,19.76
2022-10-23T05:58:15.722Z,19.77
2022-10-23T06:01:24.478Z,19.78
2022-10-23T06:04:17.962Z,19.82
2022-10-23T06:07:16.940Z,19.84
2022-10-23T06:10:06.218Z,19.84
2022-10-23T06:12:55.297Z,19.90
2022-10-23T06:15:40.710Z,19.90
2022-10-23T06:18:37.249Z,19.92
2022-10-23T06:21:28.392Z,19.91
2022-10-23T06:24:14.473Z,19.89
2022-10-23T06:27:05.887Z,19.88
2022-10-23T06:29:57.396Z,19.88
2022-10-23T06:32:43.663Z,19.91
2022-10-23T06:35:31.035Z,19.93
2022-10-23T06:38:16.548Z,19.94
2022-10-23T06:41:14.957Z,20.01
2022-10-23T06:44:03.963Z,20.05
2022-10-23T06:47:14.410Z,20.05
2022-10-23T06:50:19.512Z,20.08
2022-10-23T06:53:07.047Z,20.09
2022-10-23T06:56:01.126Z,20.10
2022-10-23T06:58:47.394Z,20.12
2022-10-23T07:01:36.153Z,20.12
2022-10-23T07:04:22.373Z,20.15
2022-10-23T07:07:08.922Z,20.18
2022-10-23T07:10:03.380Z,20.21
2022-10-23T07:13:03.355Z,20.27
2022-10-23T07:16:24.052Z,20.29
2022-10-23T07:19:11.553Z,20.28
2022-10-23T07:22:29.568Z,20.29
2022-10-23T07:25:28.370Z,20.30
2022-10-23T07:28:13.779Z,20.31
2022-10-23T07:30:59.932Z,20.32
2022-10-23T07:34:00.556Z,20.34
2022-10-23T07:36:46.247Z,20.35
2022-10-23T07:39:31.767Z,20.37
2022-10-23T07:42:17.620Z,20.38
2022-10-23T07:45:04.570Z,20.38
2022-10-23T07:47:52.040Z,20.39
2022-10-23T07:50:39.538Z,20.42
2022-10-23T07:53:25.979Z,20.43
2022-10-23T07:56:19.349Z,20.46
2022-10-23T07:59:23.583Z,20.49
2022-10-23T08:02:13.900Z,20.45
2022-10-23T08:05:00.724Z,20.47
2022-10-23T08:07:53.004Z,20.44
2022-10-23T08:10:38.326Z,20.45
2022-10-23T08:13:26.958Z,20.42
2022-10-23T08:16:29.564Z,20.42
2022-10-23T08:19:21.961Z,20.41
2022-10-23T08:22:10.778Z,20.38
2022-10-23T08:24:56.447Z,20.34
2022-10-23T08:27:43.413Z,20.33
2022-10-23T08:30:29.103Z,20.31
2022-10-23T08:33:16.899Z,20.30
2022-10-23T08:36:02.792Z,20.28
2022-10-23T08:38:54.111Z,20.26
2022-10-23T08:41:43.103Z,20.25
2022-10-23T08:44:53.997Z,20.24
2022-10-23T08:47:53.295Z,20.23
2022-10-23T08:50:46.570Z,20.21
2022-10-23T08:53:54.162Z,20.19
2022-10-23T08:56:42.246Z,20.19
2022-10-23T08:59:34.264Z,20.16
2022-10-23T09:02:22.431Z,20.15
2022-10-23T09:05:15.784Z,20.13
2022-10-23T09:08:01.216Z,20.13
2022-10-23T09:10:58.837Z,20.12
2022-10-23T09:13:55.327Z,20.10
2022-10-23T09:16:52.417Z,20.10
2022-10-23T09:19:38.023Z,20.09
2022-10-23T09:22:23.455Z,20.09
2022-10-23T09:25:21.464Z,20.07
2022-10-23T09:28:07.182Z,20.08
2022-10-23T09:30:53.350Z,20.05
2022-10-23T09:33:39.668Z,20.05
2022-10-23T09:36:27.525Z,20.04
2022-10-23T09:39:26.569Z,20.02
2022-10-23T09:42:26.175Z,20.03
2022-10-23T09:45:27.540Z,20.01
2022-10-23T09:48:18.463Z,20.02
2022-10-23T09:51:25.651Z,20.01
2022-10-23T09:54:15.484Z,19.99
2022-10-23T09:57:23.568Z,19.99
2022-10-23T10:00:15.128Z,19.99
2022-10-23T10:03:05.254Z,19.98
2022-10-23T10:06:04.902Z,19.98
2022-10-23T10:08:56.586Z,19.97
2022-10-23T10:11:47.818Z,19.97
2022-10-23T10:14:42.379Z,19.96
2022-10-23T10:17:43.345Z,19.93
2022-10-23T10:21:04.933Z,19.93
2022-10-23T10:24:00.957Z,19.93
2022-10-23T10:26:51.161Z,19.93
2022-10-23T10:29:53.754Z,19.92
2022-10-23T10:33:01.474Z,19.93
2022-10-23T10:35:59.344Z,19.92
2022-10-23T10:38:53.590Z,19.92
2022-10-23T10:42:07.844Z,19.91
2022-10-23T10:45:05.774Z,19.90
2022-10-23T10:48:32.593Z,19.91
2022-10-23T10:51:53.165Z,19.90
2022-10-23T10:54:53.671Z,19.89
2022-10-23T10:57:47.315Z,19.88
2022-10-23T11:00:34.387Z,19.88
2022-10-23T11:03:42.721Z,19.87
2022-10-23T11:06:34.154Z,19.87
2022-10-23T11:09:29.170Z,19.88
2022-10-23T11:12:28.058Z,19.86
2022-10-23T11:15:22.481Z,19.85
2022-10-23T11:18:20.618Z,19.86
2022-10-23T11:21:31.066Z,19.86
2022-10-23T11:24:53.454Z,19.85
2022-10-23T11:28:10.308Z,19.84
2022-10-23T11:31:31.849Z,19.85
2022-10-23T11:34:31.086Z,19.84
2022-10-23T11:37:22.382Z,19.84
2022-10-23T11:40:08.046Z,19.82
2022-10-23T11:42:53.280Z,19.82
2022-10-23T11:45:40.251Z,19.82
2022-10-23T11:48:44.711Z,19.83
2022-10-23T11:51:34.920Z,19.81
2022-10-23T11:54:24.615Z,19.81
2022-10-23T11:57:15.096Z,19.82
2022-10-23T12:00:00.853Z,19.80
2022-10-23T12:02:57.014Z,19.79
2022-10-23T12:05:45.741Z,19.80
2022-10-23T12:08:34.932Z,19.78
2022-10-23T12:11:42.785Z,19.77
2022-10-23T12:14:49.880Z,19.77
2022-10-23T12:17:37.900Z,19.76
2022-10-23T12:21:00.166Z,19.77
2022-10-23T12:23:48.385Z,19.76
2022-10-23T12:27:01.796Z,19.74
2022-10-23T12:30:11.311Z,19.73
2022-10-23T12:33:09.154Z,19.73
2022-10-23T12:36:22.611Z,19.72
2022-10-23T12:39:27.771Z,19.72
2022-10-23T12:42:25.995Z,19.72
2022-10-23T12:45:36.976Z,19.71
2022-10-23T12:48:24.521Z,19.72
2022-10-23T12:51:22.544Z,19.71
2022-10-23T12:54:21.424Z,19.70
2022-10-23T12:57:41.813Z,19.70
2022-10-23T13:00:27.156Z,19.70
2022-10-23T13:03:13.364Z,19.68
2022-10-23T13:06:04.031Z,19.69
2022-10-23T13:08:50.126Z,19.69
2022-10-23T13:12:04.556Z,19.69
2022-10-23T13:15:00.142Z,19.69
2022-10-23T13:18:02.308Z,19.69
2022-10-23T13:20:53.557Z,19.68
2022-10-23T13:23:41.917Z,19.68
2022-10-23T13:26:45.392Z,19.68
2022-10-23T13:29:34.497Z,19.67
2022-10-23T13:32:25.564Z,19.66
2022-10-23T13:35:22.332Z,19.67
2022-10-23T13:38:08.709Z,19.65
2022-10-23T13:41:00.098Z,19.67
2022-10-23T13:43:47.534Z,19.66
2022-10-23T13:46:33.301Z,19.66
2022-10-23T13:49:19.350Z,19.66
2022-10-23T13:52:05.593Z,19.66
2022-10-23T13:54:51.019Z,19.66
2022-10-23T13:57:36.563Z,19.66
2022-10-23T14:00:21.951Z,19.66
2022-10-23T14:03:07.208Z,19.64
2022-10-23T14:05:52.957Z,19.65
2022-10-23T14:08:38.410Z,19.64
2022-10-23T14:11:25.692Z,19.65
2022-10-23T14:14:11.555Z,19.69
2022-10-23T14:16:58.015Z,19.66
2022-10-23T14:19:43.900Z,19.65
2022-10-23T14:22:29.851Z,19.64
2022-10-23T14:25:15.993Z,19.64
2022-10-23T14:28:02.022Z,19.64
2022-10-23T14:30:47.660Z,19.65
2022-10-23T14:33:33.734Z,19.65
2022-10-23T14:39:10.580Z,19.68
2022-10-23T14:41:57.070Z,19.66
2022-10-23T14:44:43.639Z,19.66
2022-10-23T14:47:30.233Z,19.63
2022-10-23T14:50:16.192Z,19.64
2022-10-23T14:53:02.183Z,19.65
2022-10-23T14:55:47.493Z,19.68
2022-10-23T14:58:33.020Z,19.68
2022-10-23T15:01:20.685Z,19.70
2022-10-23T15:04:07.516Z,19.71
2022-10-23T15:06:53.724Z,19.72
2022-10-23T15:09:40.028Z,19.75
2022-10-23T15:12:27.206Z,19.80
2022-10-23T15:15:13.624Z,19.81
2022-10-23T15:17:59.177Z,19.84
2022-10-23T15:20:52.068Z,19.85
2022-10-23T15:23:40.344Z,19.89
2022-10-23T15:26:25.897Z,19.90
2022-10-23T15:29:12.671Z,19.91
2022-10-23T15:31:59.511Z,19.97
2022-10-23T15:34:44.959Z,19.99
2022-10-23T15:37:30.583Z,20.02
2022-10-23T15:40:16.268Z,20.02
2022-10-23T15:43:01.897Z,20.05
2022-10-23T15:45:47.289Z,20.07
2022-10-23T15:48:33.467Z,20.09
2022-10-23T15:51:19.965Z,20.13
2022-10-23T15:54:17.520Z,20.14
2022-10-23T15:57:04.270Z,20.14
2022-10-23T15:59:51.522Z,20.15
2022-10-23T16:02:37.638Z,20.17
2022-10-23T16:05:23.285Z,20.19
2022-10-23T16:08:08.389Z,20.24
2022-10-23T16:10:54.414Z,20.25
2022-10-23T16:13:40.017Z,20.27
2022-10-23T16:16:26.032Z,20.30
2022-10-23T16:19:12.290Z,20.31
2022-10-23T16:21:57.752Z,20.30
2022-10-23T16:24:43.354Z,20.30
2022-10-23T16:27:28.864Z,20.31
2022-10-23T16:30:16.377Z,20.32
2022-10-23T16:33:03.546Z,20.30
2022-10-23T16:36:14.581Z,20.32
2022-10-23T16:39:20.689Z,20.32
2022-10-23T16:42:24.802Z,20.34
2022-10-23T16:45:27.751Z,20.34
2022-10-23T16:48:13.249Z,20.37
2022-10-23T16:50:58.584Z,20.36
2022-10-23T16:53:44.887Z,20.39
2022-10-23T16:56:31.409Z,20.38
2022-10-23T16:59:17.051Z,20.42
2022-10-23T17:02:03.247Z,20.44
2022-10-23T17:04:49.288Z,20.46
2022-10-23T17:07:35.031Z,20.48
2022-10-23T17:10:20.699Z,20.49
2022-10-23T17:13:06.489Z,20.52
2022-10-23T17:16:02.280Z,20.49
2022-10-23T17:18:48.480Z,20.52
2022-10-23T17:21:36.998Z,20.50
2022-10-23T17:24:22.975Z,20.50
2022-10-23T17:27:10.866Z,20.49
2022-10-23T17:29:56.410Z,20.49
2022-10-23T17:32:42.743Z,20.49
2022-10-23T17:35:28.755Z,20.49
2022-10-23T17:38:18.315Z,20.47
2022-10-23T17:41:05.185Z,20.48
2022-10-23T17:43:51.408Z,20.48
2022-10-23T17:46:37.656Z,20.51
2022-10-23T17:49:24.534Z,20.49
2022-10-23T17:52:14.544Z,20.53
2022-10-23T17:55:00.891Z,20.54
2022-10-23T17:57:46.857Z,20.52
2022-10-23T18:00:33.035Z,20.52
2022-10-23T18:03:19.912Z,20.52
2022-10-23T18:06:17.453Z,20.56
2022-10-23T18:09:07.063Z,20.59
2022-10-23T18:11:53.296Z,20.59
2022-10-23T18:14:39.128Z,20.64
2022-10-23T18:17:24.487Z,20.65
2022-10-23T18:20:12.068Z,20.64
2022-10-23T18:22:58.440Z,20.62
2022-10-23T18:25:44.150Z,20.64
2022-10-23T18:28:30.753Z,20.65
2022-10-23T18:31:17.642Z,20.66
2022-10-23T18:34:07.751Z,20.66
2022-10-23T18:36:54.673Z,20.69
2022-10-23T18:39:40.268Z,20.70
2022-10-23T18:42:26.387Z,20.72
2022-10-23T18:45:13.631Z,20.72
2022-10-23T18:47:59.703Z,20.75
2022-10-23T18:50:45.363Z,20.76
2022-10-23T18:53:31.007Z,20.75
2022-10-23T18:56:22.671Z,20.76
2022-10-23T18:59:13.698Z,20.79
2022-10-23T19:01:59.460Z,20.79
2022-10-23T19:04:45.035Z,20.82
2022-10-23T19:07:30.806Z,20.83
2022-10-23T19:10:19.717Z,20.83
2022-10-23T19:13:06.013Z,20.85
2022-10-23T19:15:52.071Z,20.85
2022-10-23T19:18:39.918Z,20.80
2022-10-23T19:21:33.151Z,20.84
2022-10-23T19:24:21.216Z,20.85
2022-10-23T19:27:08.282Z,20.84
2022-10-23T19:29:55.499Z,20.85
2022-10-23T19:32:42.873Z,20.86
2022-10-23T19:35:28.664Z,20.86
2022-10-23T19:38:14.371Z,20.87
2022-10-23T19:41:00.037Z,20.88
2022-10-23T19:43:45.661Z,20.88
2022-10-23T19:46:31.000Z,20.88
2022-10-23T19:49:17.422Z,20.89
2022-10-23T19:52:03.214Z,20.90
2022-10-23T19:54:48.977Z,20.89
2022-10-23T19:57:35.516Z,20.89
2022-10-23T20:00:21.816Z,20.89
2022-10-23T20:03:07.663Z,20.91
2022-10-23T20:05:53.170Z,20.93
2022-10-23T20:08:39.986Z,20.93
2022-10-23T20:11:28.338Z,20.93
2022-10-23T20:14:14.012Z,20.92
2022-10-23T20:17:00.232Z,20.94
2022-10-23T20:19:48.248Z,20.95
2022-10-23T20:22:34.278Z,20.97
2022-10-23T20:25:20.533Z,20.99
2022-10-23T20:28:08.197Z,20.97
2022-10-23T20:30:55.846Z,20.90
2022-10-23T20:33:41.829Z,20.95
2022-10-23T20:36:31.257Z,20.99
2022-10-23T20:39:24.635Z,20.97
2022-10-23T20:42:10.001Z,21.01
2022-10-23T20:44:55.581Z,20.99
2022-10-23T20:47:40.817Z,20.99
2022-10-23T20:50:26.011Z,20.97
2022-10-23T20:53:11.335Z,20.96
2022-10-23T20:55:56.597Z,20.97
2022-10-23T20:58:42.094Z,20.97
2022-10-23T21:01:29.138Z,20.99
2022-10-23T21:04:15.697Z,20.99
2022-10-23T21:07:10.492Z,20.98
2022-10-23T21:09:56.522Z,21.00
2022-10-23T21:12:42.139Z,20.99
2022-10-23T21:15:28.425Z,20.97
2022-10-23T21:18:26.496Z,20.98
2022-10-23T21:21:20.786Z,20.97
2022-10-23T21:24:09.717Z,20.96
2022-10-23T21:26:55.053Z,20.95
2022-10-23T21:29:40.398Z,20.97
2022-10-23T21:32:25.636Z,20.97
2022-10-23T21:35:10.795Z,20.99
2022-10-23T21:37:57.247Z,21.00
2022-10-23T21:40:42.418Z,20.99
2022-10-23T21:43:27.626Z,20.99
2022-10-23T21:46:17.405Z,20.97
2022-10-23T21:49:03.507Z,21.01
2022-10-23T21:51:49.048Z,21.00
2022-10-23T21:54:34.386Z,20.99
2022-10-23T21:57:19.943Z,21.01
2022-10-23T22:00:06.966Z,21.01
2022-10-23T22:02:57.797Z,21.02
2022-10-23T22:05:43.047Z,21.02
2022-10-23T22:08:28.501Z,21.03
2022-10-23T22:11:15.105Z,21.02
2022-10-23T22:14:00.904Z,21.06
2022-10-23T22:16:47.183Z,21.05
2022-10-23T22:19:32.616Z,21.04
2022-10-23T22:22:18.002Z,21.07
2022-10-23T22:25:03.490Z,21.07
2022-10-23T22:27:48.923Z,21.09
2022-10-23T22:30:36.765Z,21.09
2022-10-23T22:33:22.128Z,21.07
2022-10-23T22:36:07.903Z,21.08
2022-10-23T22:38:54.307Z,21.08
2022-10-23T22:41:39.518Z,21.06
2022-10-23T22:44:24.661Z,21.04
2022-10-23T22:47:10.063Z,21.04
2022-10-23T22:49:55.254Z,21.06
2022-10-23T22:52:40.566Z,21.07
2022-10-23T22:55:25.729Z,21.07
2022-10-23T22:58:10.990Z,21.09
2022-10-23T23:01:09.224Z,21.06
2022-10-23T23:03:58.203Z,21.07
2022-10-23T23:06:46.482Z,21.06
2022-10-23T23:09:31.787Z,21.06
2022-10-23T23:12:17.060Z,21.07
2022-10-23T23:15:02.571Z,21.05
2022-10-23T23:17:48.008Z,20.98
2022-10-23T23:20:33.976Z,20.99
2022-10-23T23:23:19.833Z,20.96
2022-10-23T23:26:08.807Z,20.92
2022-10-23T23:28:54.978Z,20.90
2022-10-23T23:31:40.256Z,20.87
2022-10-23T23:34:25.798Z,20.86
2022-10-23T23:37:11.039Z,20.83
2022-10-23T23:39:56.396Z,20.81
2022-10-23T23:42:42.042Z,20.79
2022-10-23T23:45:27.890Z,20.75
2022-10-23T23:50:58.760Z,20.70
2022-10-23T23:53:44.139Z,20.69
2022-10-23T23:56:29.545Z,20.65
2022-10-23T23:59:14.796Z,20.64
